Time;durP1;ratioP1;P1;durP2;ratioP2;P2;SDS_P1;SDS_P2;PMS_P1;PMS_P2;Temp;Humidity;BMP_temperature;BMP_pressure;BME280_temperature;BME280_humidity;BME280_pressure;Samples;Min_cycle;Max_cycle;Signal;HPM_P1;HPM_P2
2022/05/06 00:00:46;;;;;;;7.57;4.15;;;;;;;8.30;67.43;101234.19;6304721;22;20018;-63
2022/05/06 00:03:31;;;;;;;10.13;4.65;;;;;;;8.25;67.65;101227.06;6316019;22;20333;-61
2022/05/06 00:06:16;;;;;;;10.80;4.47;;;;;;;8.30;67.84;101231.56;6317152;22;20022;-62
2022/05/06 00:09:00;;;;;;;11.10;4.10;;;;;;;8.17;67.58;101204.91;6313990;22;20452;-61
2022/05/06 00:11:45;;;;;;;13.40;4.93;;;;;;;8.23;67.28;101219.13;6292542;22;20075;-62
2022/05/06 00:14:29;;;;;;;9.03;4.10;;;;;;;8.23;67.31;101228.81;6316292;22;20057;-63
2022/05/06 00:17:14;;;;;;;15.73;4.80;;;;;;;8.28;66.91;101233.28;6304482;22;20367;-61
2022/05/06 00:19:58;;;;;;;12.02;4.43;;;;;;;8.03;67.33;101195.94;6316037;22;20026;-63
2022/05/06 00:22:44;;;;;;;8.48;3.90;;;;;;;8.17;67.10;101216.38;6305513;22;20021;-61
2022/05/06 00:25:29;;;;;;;10.32;3.95;;;;;;;8.37;66.79;101248.38;6280710;22;20027;-62
2022/05/06 00:28:13;;;;;;;8.48;4.35;;;;;;;8.26;66.80;101219.16;6316545;22;20022;-61
2022/05/06 00:31:00;;;;;;;8.85;4.40;;;;;;;8.24;66.05;101206.81;6306640;22;20018;-66
2022/05/06 00:33:44;;;;;;;11.10;4.72;;;;;;;8.31;65.46;101192.81;6261734;22;20341;-60
2022/05/06 00:36:29;;;;;;;10.90;4.57;;;;;;;8.54;64.83;101234.47;6306738;22;20018;-63
2022/05/06 00:39:14;;;;;;;10.23;4.75;;;;;;;8.53;64.39;101237.09;6293526;22;20018;-65
2022/05/06 00:41:58;;;;;;;13.50;4.93;;;;;;;8.48;64.39;101221.22;6302657;22;20079;-61
2022/05/06 00:44:43;;;;;;;10.63;4.93;;;;;;;8.58;64.52;101243.31;6303479;22;20064;-62
2022/05/06 00:47:29;;;;;;;8.55;4.68;;;;;;;8.67;64.36;101236.38;6316655;22;20083;-61
2022/05/06 00:50:14;;;;;;;9.65;4.60;;;;;;;8.71;64.30;101237.31;6260839;22;20072;-61
2022/05/06 00:52:59;;;;;;;10.10;4.57;;;;;;;8.69;64.15;101239.06;6293236;22;20023;-62
2022/05/06 00:55:45;;;;;;;12.23;4.90;;;;;;;8.43;63.42;101177.97;6270242;22;20083;-62
2022/05/06 00:58:33;;;;;;;13.07;4.97;;;;;;;8.85;63.21;101238.34;6269935;22;20021;-62
2022/05/06 01:01:18;;;;;;;10.63;5.32;;;;;;;8.84;62.02;101234.81;6306098;22;20375;-62
2022/05/06 01:04:03;;;;;;;;;;;;;;;8.91;61.05;101249.88;6293644;22;20060;-64
2022/05/06 01:06:49;;;;;;;10.35;4.70;;;;;;;8.91;62.31;101238.41;6269877;22;19910;-61
2022/05/06 01:09:35;;;;;;;11.88;5.10;;;;;;;8.96;62.27;101245.53;6293654;22;20045;-62
2022/05/06 01:12:20;;;;;;;11.40;5.07;;;;;;;8.86;61.98;101213.66;6280951;22;20022;-62
2022/05/06 01:15:20;;;;;;;12.90;4.55;;;;;;;9.17;61.68;101250.13;6291920;22;20607;-62
2022/05/06 01:18:13;;;;;;;13.18;5.10;;;;;;;9.19;61.63;101251.03;6290850;22;20018;-61
2022/05/06 01:21:00;;;;;;;11.45;5.05;;;;;;;9.20;61.27;101248.41;6305170;22;20104;-62
2022/05/06 01:23:44;;;;;;;10.30;5.10;;;;;;;9.24;62.05;101255.50;6315079;22;20018;-62
2022/05/06 01:27:03;;;;;;;9.57;4.75;;;;;;;9.33;62.30;101257.31;6289856;22;20022;-62
2022/05/06 01:29:51;;;;;;;10.95;4.95;;;;;;;9.24;62.52;101259.91;6149690;23;20080;-62
2022/05/06 01:32:36;;;;;;;12.43;4.53;;;;;;;9.28;62.03;101261.69;6159443;23;20021;-61
2022/05/06 01:35:22;;;;;;;9.82;4.72;;;;;;;9.31;61.85;101259.09;6152054;23;20068;-61
2022/05/06 01:38:09;;;;;;;10.02;5.05;;;;;;;9.30;62.27;101244.94;6152190;23;20025;-61
2022/05/06 01:41:00;;;;;;;10.63;5.13;;;;;;;9.37;62.61;101246.78;6151369;23;20121;-62
2022/05/06 01:43:55;;;;;;;7.68;4.80;;;;;;;9.40;61.81;101252.13;6131768;23;20020;-61
2022/05/06 01:46:40;;;;;;;10.45;5.28;;;;;;;9.39;61.64;101242.38;6112758;23;20079;-61
2022/05/06 01:49:31;;;;;;;12.23;5.45;;;;;;;9.49;61.88;101249.53;6123108;23;20462;-61
2022/05/06 01:52:17;;;;;;;12.30;5.22;;;;;;;9.34;61.75;101222.94;6123545;23;20021;-62
2022/05/06 01:55:06;;;;;;;10.77;4.85;;;;;;;9.37;61.42;101216.75;6164197;23;20131;-61
2022/05/06 01:57:59;;;;;;;8.52;5.20;;;;;;;9.58;61.59;101259.31;6143096;23;20466;-61
2022/05/06 02:00:46;;;;;;;17.23;5.90;;;;;;;9.62;61.14;101261.13;6153248;23;20021;-63
2022/05/06 02:06:44;;;;;;;9.10;5.05;;;;;;;9.41;60.43;101235.34;6318310;22;20464;-61
2022/05/06 02:09:34;;;;;;;10.25;5.70;;;;;;;9.50;61.63;101264.53;6296165;22;20495;-61
2022/05/06 02:12:22;;;;;;;12.13;5.85;;;;;;;9.38;61.58;101260.91;6295923;22;20021;-62
2022/05/06 02:15:19;;;;;;;13.32;5.32;;;;;;;9.40;62.40;101257.41;6285677;22;20324;-61
2022/05/06 02:18:23;;;;;;;10.98;5.07;;;;;;;9.37;61.88;101235.28;6268378;22;20018;-62
2022/05/06 02:21:28;;;;;;;10.80;5.53;;;;;;;9.46;61.64;101259.22;6193299;23;20016;-61
2022/05/06 02:24:30;;;;;;;15.02;5.20;;;;;;;9.58;62.08;101261.97;6142071;23;20062;-61
2022/05/06 02:27:40;;;;;;;7.57;4.75;;;;;;;9.59;61.77;101266.38;6168658;23;20020;-61
2022/05/06 02:33:36;;;;;;;13.68;5.50;;;;;;;9.62;61.51;101276.09;6172437;23;20079;-63
2022/05/06 02:36:33;;;;;;;9.65;5.07;;;;;;;9.61;62.23;101258.44;6163257;23;20470;-63
2022/05/06 02:39:18;;;;;;;8.80;4.60;;;;;;;9.70;62.28;101277.06;6142779;23;20071;-62
2022/05/06 02:42:03;;;;;;;9.60;4.90;;;;;;;9.74;61.71;101271.81;6173108;23;20052;-63
2022/05/06 02:44:48;;;;;;;11.02;4.90;;;;;;;9.55;62.25;101265.44;6173064;23;20422;-62
2022/05/06 02:47:32;;;;;;;8.27;4.80;;;;;;;9.54;62.98;101253.09;6183973;23;20036;-61
2022/05/06 02:50:18;;;;;;;10.35;4.72;;;;;;;9.74;63.71;101284.16;6193617;23;20020;-60
2022/05/06 02:53:04;;;;;;;10.35;4.32;;;;;;;9.43;62.95;101254.75;6194041;23;20358;-61
2022/05/06 02:55:49;;;;;;;12.32;4.25;;;;;;;9.74;63.99;101284.16;6172572;23;20288;-63
2022/05/06 02:58:34;;;;;;;7.78;4.18;;;;;;;9.77;64.56;101274.44;6220078;22;20034;-61
2022/05/06 03:01:19;;;;;;;9.65;4.32;;;;;;;9.84;64.84;101278.91;6264863;22;20022;-63
2022/05/06 03:04:11;;;;;;;11.15;4.30;;;;;;;9.86;64.99;101284.22;6264534;22;20019;-62
2022/05/06 03:06:59;;;;;;;12.93;4.93;;;;;;;9.75;64.97;101283.25;6244199;22;20027;-61
2022/05/06 03:10:00;;;;;;;14.63;4.78;;;;;;;9.76;65.65;101293.00;6265365;22;20046;-61
2022/05/06 03:12:48;;;;;;;13.35;4.43;;;;;;;9.78;66.68;101294.78;6264474;22;20046;-62
2022/05/06 03:15:35;;;;;;;8.15;4.28;;;;;;;9.82;66.06;101290.38;6232939;22;20341;-61
2022/05/06 03:18:27;;;;;;;12.65;4.85;;;;;;;9.59;66.51;101288.44;6232831;22;20107;-63
2022/05/06 03:21:12;;;;;;;7.53;4.07;;;;;;;9.72;66.81;101297.38;6242343;22;20025;-61
2022/05/06 03:23:59;;;;;;;13.27;4.30;;;;;;;9.84;65.55;101294.81;6286776;22;20094;-62
2022/05/06 03:26:43;;;;;;;12.98;4.57;;;;;;;9.77;64.05;101298.28;6296442;22;20029;-62
2022/05/06 03:29:28;;;;;;;12.97;4.00;;;;;;;9.75;65.51;101281.50;6295124;22;20018;-62
2022/05/06 03:32:16;;;;;;;11.90;3.88;;;;;;;9.71;65.06;101290.31;6296056;22;20327;-66
2022/05/06 03:35:00;;;;;;;11.35;3.30;;;;;;;9.66;64.21;101284.09;6307972;22;20049;-62
2022/05/06 03:37:48;;;;;;;12.50;4.00;;;;;;;9.80;66.29;101308.03;6284988;22;20044;-63
2022/05/06 03:40:34;;;;;;;8.32;3.97;;;;;;;9.75;66.15;101299.16;6318261;22;20038;-63
2022/05/06 03:43:21;;;;;;;14.82;4.38;;;;;;;9.42;65.86;101298.00;6295131;22;20015;-61
2022/05/06 03:46:06;;;;;;;10.82;3.97;;;;;;;9.53;67.38;101299.00;6294786;22;20026;-62
2022/05/06 03:48:51;;;;;;;9.52;3.97;;;;;;;9.77;67.79;101298.28;6318029;22;20018;-62
2022/05/06 03:51:36;;;;;;;14.10;4.55;;;;;;;9.68;65.31;101314.13;6293908;22;20022;-65
2022/05/06 03:54:34;;;;;;;13.05;4.07;;;;;;;9.50;65.05;101320.13;6243051;22;20089;-61
2022/05/06 03:57:20;;;;;;;13.65;3.95;;;;;;;9.32;67.53;101312.03;6294852;22;20333;-62
2022/05/06 04:00:05;;;;;;;14.30;4.22;;;;;;;9.36;68.75;101318.25;6293395;22;20018;-62
2022/05/06 04:03:01;;;;;;;17.50;4.25;;;;;;;9.30;68.81;101267.91;6284254;22;20459;-63
2022/05/06 04:05:45;;;;;;;14.70;4.20;;;;;;;9.68;67.90;101321.19;6306761;22;20030;-64
2022/05/06 04:08:31;;;;;;;13.35;4.30;;;;;;;9.36;68.45;101281.19;6262631;22;20403;-65
2022/05/06 04:11:19;;;;;;;13.07;4.57;;;;;;;9.72;70.01;101317.69;6317955;22;20076;-65
2022/05/06 04:14:05;;;;;;;12.90;4.10;;;;;;;9.86;70.72;101303.69;6294000;22;20013;-63
2022/05/06 04:16:54;;;;;;;12.15;4.28;;;;;;;10.25;70.27;101313.69;6317546;22;20133;-65
2022/05/06 04:26:00;;;;;;;;;;;;;;;10.92;66.84;101316.63;6284241;22;20061;-64
2022/05/06 04:28:45;;;;;;;10.15;4.15;;;;;;;10.65;67.83;101316.56;6262155;22;20491;-69
2022/05/06 04:31:32;;;;;;;10.68;3.90;;;;;;;10.22;67.89;101293.34;6272200;22;20034;-63
2022/05/06 04:34:21;;;;;;;10.60;3.95;;;;;;;10.41;68.80;101318.19;6273466;22;20094;-64
2022/05/06 04:37:06;;;;;;;17.48;4.60;;;;;;;10.27;69.60;101315.47;6293892;22;20026;-66
2022/05/06 04:39:53;;;;;;;7.32;3.75;;;;;;;10.21;67.54;101317.19;6262664;22;20022;-63
2022/05/06 04:42:38;;;;;;;10.65;3.45;;;;;;;10.01;62.93;101302.88;6293702;22;20379;-63
2022/05/06 04:45:22;;;;;;;7.65;2.90;;;;;;;10.02;63.14;101331.16;6272391;22;20037;-65
2022/05/06 04:48:19;;;;;;;7.95;3.58;;;;;;;10.07;64.02;101321.50;6284371;22;20072;-63
2022/05/06 04:51:05;;;;;;;7.97;3.13;;;;;;;10.04;63.32;101332.94;6265095;22;20070;-65
2022/05/06 04:53:54;;;;;;;6.05;2.75;;;;;;;9.99;63.89;101326.72;6298963;22;20097;-63
2022/05/06 04:56:39;;;;;;;6.57;2.90;;;;;;;9.92;63.49;101300.19;6299235;22;20014;-61
2022/05/06 04:59:32;;;;;;;9.18;3.42;;;;;;;10.16;63.26;101308.34;6284862;22;20321;-62
2022/05/06 05:02:17;;;;;;;9.63;2.92;;;;;;;10.18;62.01;101311.84;6293619;22;20144;-62
2022/05/06 05:05:03;;;;;;;8.25;3.03;;;;;;;10.19;62.17;101325.13;6241039;22;20100;-63
2022/05/06 05:07:51;;;;;;;9.05;3.33;;;;;;;10.28;63.66;101324.31;6283226;22;20446;-60
2022/05/06 05:10:36;;;;;;;7.55;2.92;;;;;;;10.52;62.44;101324.44;6240450;22;20026;-64
2022/05/06 05:13:21;;;;;;;10.32;3.20;;;;;;;10.71;62.95;101318.31;6293598;22;20069;-63
2022/05/06 05:16:06;;;;;;;6.68;2.92;;;;;;;10.85;61.98;101320.16;6283448;22;20065;-62
2022/05/06 05:18:51;;;;;;;9.90;3.00;;;;;;;11.12;59.63;101308.75;6282925;22;20018;-61
2022/05/06 05:21:35;;;;;;;8.18;2.80;;;;;;;11.39;57.45;101320.28;6306813;22;20433;-63
2022/05/06 05:24:22;;;;;;;10.02;2.45;;;;;;;11.27;56.81;101322.91;6293714;22;20022;-63
2022/05/06 05:27:07;;;;;;;5.38;2.25;;;;;;;11.34;54.93;101310.53;6260499;22;20076;-62
2022/05/06 05:29:52;;;;;;;6.60;2.67;;;;;;;11.37;55.18;101314.09;6316768;22;20365;-62
2022/05/06 05:32:39;;;;;;;7.10;2.53;;;;;;;11.70;54.89;101302.63;6283957;22;20448;-64
2022/05/06 05:35:29;;;;;;;5.65;2.10;;;;;;;12.06;53.80;101326.50;6262567;22;20018;-63
2022/05/06 05:38:18;;;;;;;6.80;2.22;;;;;;;12.34;52.53;101325.59;6293808;22;20087;-64
2022/05/06 05:41:03;;;;;;;13.18;2.55;;;;;;;12.22;52.00;101315.84;6293305;22;20045;-64
2022/05/06 05:49:55;;;;;;;7.75;2.30;;;;;;;12.99;50.83;101315.63;6316717;22;20408;-64
2022/05/06 05:52:42;;;;;;;5.53;2.45;;;;;;;13.29;50.66;101319.00;6263368;22;20499;-64
2022/05/06 05:55:27;;;;;;;7.90;3.17;;;;;;;13.86;49.67;101318.53;6293412;22;20452;-64
2022/05/06 05:58:13;;;;;;;4.90;1.50;;;;;;;13.59;40.39;101323.22;6293631;22;20021;-65
2022/05/06 06:00:59;;;;;;;2.88;1.25;;;;;;;13.41;40.08;101316.25;6260616;22;20018;-64
2022/05/06 06:03:49;;;;;;;7.70;1.38;;;;;;;13.43;40.40;101285.16;6261852;22;20080;-65
2022/05/06 06:06:34;;;;;;;5.35;1.63;;;;;;;14.05;40.26;101321.06;6292460;22;20328;-63
2022/05/06 06:09:22;;;;;;;4.07;1.50;;;;;;;13.72;38.73;101250.25;6316760;22;20459;-64
2022/05/06 06:12:09;;;;;;;2.65;1.52;;;;;;;14.40;38.16;101329.63;6283514;22;20064;-63
2022/05/06 06:14:56;;;;;;;3.28;1.50;;;;;;;14.44;37.51;101294.00;6316733;22;20360;-63
2022/05/06 06:17:41;;;;;;;4.25;1.50;;;;;;;14.86;36.67;101310.38;6271954;22;20050;-62
2022/05/06 06:20:27;;;;;;;5.93;1.60;;;;;;;15.08;36.53;101319.88;6316536;22;20061;-62
2022/05/06 06:23:12;;;;;;;3.83;1.17;;;;;;;14.92;35.35;101320.09;6306241;22;20014;-63
2022/05/06 06:25:57;;;;;;;5.53;1.60;;;;;;;14.56;35.28;101318.75;6293497;22;20030;-64
2022/05/06 06:28:42;;;;;;;3.38;1.20;;;;;;;14.78;35.75;101320.28;6293329;22;20034;-63
2022/05/06 06:31:31;;;;;;;8.80;1.88;;;;;;;15.02;35.17;101311.03;6294431;22;20375;-63
2022/05/06 06:34:18;;;;;;;6.78;1.65;;;;;;;15.08;33.50;101314.56;6242613;22;20064;-63
2022/05/06 06:37:04;;;;;;;6.88;1.70;;;;;;;15.05;32.54;101306.56;6263342;22;20157;-63
2022/05/06 06:39:50;;;;;;;4.78;1.88;;;;;;;15.33;32.58;101317.72;6295250;22;20037;-63
2022/05/06 06:42:36;;;;;;;5.10;1.70;;;;;;;15.47;32.30;101321.13;6295388;22;20018;-62
2022/05/06 06:45:41;;;;;;;6.05;2.08;;;;;;;15.43;32.72;101316.75;6268069;22;20046;-62
2022/05/06 06:48:50;;;;;;;7.32;2.10;;;;;;;15.72;31.89;101307.34;6294935;22;20091;-64
2022/05/06 06:51:47;;;;;;;7.43;1.98;;;;;;;15.91;31.30;101300.75;6262677;22;20070;-64
2022/05/06 06:54:31;;;;;;;5.80;1.70;;;;;;;15.98;30.64;101266.78;6307698;22;20301;-62
2022/05/06 06:57:16;;;;;;;;;;;;;;;16.24;31.04;101315.34;6242392;22;20022;-62
2022/05/06 07:00:01;;;;;;;8.00;2.35;;;;;;;16.38;30.68;101303.47;6318051;22;20269;-62
2022/05/06 07:02:46;;;;;;;4.88;1.88;;;;;;;16.20;29.40;101322.56;6295149;22;20025;-63
2022/05/06 07:05:31;;;;;;;6.03;1.92;;;;;;;16.00;29.12;101313.09;6273700;22;20432;-63
2022/05/06 07:14:25;;;;;;;8.35;2.13;;;;;;;15.79;28.97;101311.66;6308033;22;20395;-65
2022/05/06 07:17:09;;;;;;;3.17;1.80;;;;;;;16.27;29.35;101281.38;6308369;22;20329;-63
2022/05/06 07:19:53;;;;;;;4.75;2.00;;;;;;;16.63;28.16;101315.50;6308210;22;20041;-63
2022/05/06 07:22:38;;;;;;;9.32;2.35;;;;;;;16.57;27.62;101312.94;6317753;22;20042;-62
2022/05/06 07:25:22;;;;;;;8.32;2.20;;;;;;;16.95;27.49;101306.78;6307791;22;20360;-63
2022/05/06 07:28:08;;;;;;;5.88;2.30;;;;;;;17.38;26.56;101315.66;6319299;22;20479;-66
2022/05/06 07:30:52;;;;;;;;;;;;;;;17.21;25.90;101308.00;6295217;22;20069;-64
2022/05/06 07:33:36;;;;;;;6.70;2.38;;;;;;;16.83;25.90;101286.53;6295157;22;19930;-62
2022/05/06 07:36:23;;;;;;;7.32;2.15;;;;;;;16.99;26.13;101312.06;6319697;22;20080;-64
2022/05/06 07:39:14;;;;;;;5.32;2.13;;;;;;;17.21;26.38;101302.63;6273308;22;20022;-64
2022/05/06 07:42:00;;;;;;;4.30;2.03;;;;;;;17.73;25.39;101283.53;6242037;22;20077;-63
2022/05/06 07:44:45;;;;;;;5.22;2.20;;;;;;;18.41;24.63;101290.69;6294316;22;20452;-63
2022/05/06 07:47:29;;;;;;;7.57;2.25;;;;;;;18.96;24.15;101298.03;6308222;22;20325;-63
2022/05/06 07:50:15;;;;;;;5.22;2.45;;;;;;;19.55;22.51;101305.19;6295494;22;20058;-63
2022/05/06 07:53:00;;;;;;;7.82;2.60;;;;;;;19.74;22.34;101296.44;6284452;22;20084;-62
2022/05/06 07:55:44;;;;;;;4.78;2.38;;;;;;;19.78;22.11;101295.41;6317492;22;20018;-64
2022/05/06 07:58:30;;;;;;;8.05;2.42;;;;;;;19.54;21.82;101301.59;6318469;22;20018;-62
2022/05/06 08:01:14;;;;;;;9.55;2.40;;;;;;;20.31;21.75;101296.31;6318543;22;20345;-62
2022/05/06 08:07:08;;;;;;;4.57;1.85;;;;;;;20.88;20.25;101299.56;6268099;22;20403;-62
2022/05/06 08:09:53;;;;;;;5.93;2.20;;;;;;;20.60;20.46;101294.31;6280592;22;20022;-64
2022/05/06 08:12:38;;;;;;;6.70;2.17;;;;;;;20.73;20.86;101298.31;6258466;22;20329;-62
2022/05/06 08:15:23;;;;;;;3.80;2.00;;;;;;;21.34;20.35;101286.09;6303138;22;20019;-63
2022/05/06 08:18:09;;;;;;;3.65;2.08;;;;;;;21.03;20.13;101293.63;6289997;22;20018;-63
2022/05/06 08:20:55;;;;;;;3.72;2.03;;;;;;;20.10;20.26;101283.59;6306577;22;20073;-65
2022/05/06 08:23:40;;;;;;;6.97;2.10;;;;;;;19.58;21.12;101283.56;6307714;22;20030;-63
2022/05/06 08:26:24;;;;;;;6.30;2.22;;;;;;;19.25;20.97;101265.78;6294078;22;20333;-63
2022/05/06 08:29:09;;;;;;;7.22;2.33;;;;;;;19.37;21.53;101270.78;6307524;22;20128;-62
2022/05/06 08:31:54;;;;;;;5.65;2.13;;;;;;;19.79;21.21;101267.59;6306891;22;20064;-62
2022/05/06 08:34:39;;;;;;;5.78;2.38;;;;;;;19.80;21.22;101273.81;6285602;22;20018;-63
2022/05/06 08:37:25;;;;;;;6.43;1.90;;;;;;;19.53;21.45;101263.97;6293914;22;20050;-62
2022/05/06 08:40:31;;;;;;;6.50;2.28;;;;;;;19.79;nan;101253.22;6284080;22;20094;-62
2022/05/06 08:43:16;;;;;;;4.72;2.15;;;;;;;19.56;21.30;101261.19;6283895;22;20040;-64
2022/05/06 08:52:11;;;;;;;7.95;3.00;;;;;;;19.08;22.23;101247.47;6317824;22;20094;-64
2022/05/06 08:54:55;;;;;;;3.80;2.50;;;;;;;19.37;21.93;101254.63;6306185;22;20317;-64
2022/05/06 08:57:42;;;;;;;4.30;2.70;;;;;;;19.50;20.57;101245.25;6307575;22;20109;-64
2022/05/06 09:00:27;;;;;;;5.93;3.13;;;;;;;19.34;21.00;101238.63;6318045;22;20428;-63
2022/05/06 09:03:17;;;;;;;6.00;2.65;;;;;;;19.96;20.62;101258.91;6283664;22;20030;-65
2022/05/06 09:06:02;;;;;;;5.32;2.30;;;;;;;19.64;19.92;101259.13;6307138;22;20502;-63
2022/05/06 09:08:48;;;;;;;7.57;2.55;;;;;;;19.17;20.39;101248.97;6308062;22;20014;-62
2022/05/06 09:17:40;;;;;;;6.05;2.40;;;;;;;19.87;19.98;101253.84;6293555;22;20086;-63
2022/05/06 09:20:27;;;;;;;5.70;2.70;;;;;;;19.10;20.48;101212.47;6306640;22;20334;-63
2022/05/06 09:23:29;;;;;;;7.00;2.70;;;;;;;19.00;21.04;101254.00;6283894;22;20095;-63
2022/05/06 09:26:18;;;;;;;4.40;2.95;;;;;;;18.48;21.16;101241.25;6293940;22;20164;-62
2022/05/06 09:29:03;;;;;;;6.30;2.92;;;;;;;18.61;21.61;101248.03;6315826;22;20049;-62
2022/05/06 09:31:49;;;;;;;10.07;3.00;;;;;;;18.55;21.35;101236.56;6316751;22;20019;-64
2022/05/06 09:34:36;;;;;;;8.20;3.13;;;;;;;18.35;21.52;101252.38;6261716;22;20138;-62
2022/05/06 09:37:43;;;;;;;5.65;3.28;;;;;;;18.11;21.95;101218.13;6293717;22;20433;-63
2022/05/06 09:40:30;;;;;;;7.20;2.75;;;;;;;18.20;21.81;101234.84;6305517;22;20050;-64
2022/05/06 09:43:19;;;;;;;5.85;2.95;;;;;;;18.11;21.14;101239.59;6316946;22;20325;-63
2022/05/06 09:46:20;;;;;;;5.72;3.25;;;;;;;17.99;21.63;101230.06;6280969;22;20026;-62
2022/05/06 09:49:05;;;;;;;5.15;3.10;;;;;;;18.28;21.84;101226.56;6272241;22;20501;-63
2022/05/06 09:51:50;;;;;;;6.15;3.25;;;;;;;18.95;21.16;101207.56;6316452;22;20022;-63
2022/05/06 09:54:35;;;;;;;6.15;3.00;;;;;;;18.77;20.74;101232.31;6317366;22;20093;-64
2022/05/06 09:57:20;;;;;;;6.00;2.80;;;;;;;18.92;20.70;101203.16;6304265;22;20420;-63
2022/05/06 10:00:05;;;;;;;4.78;2.70;;;;;;;20.25;19.83;101210.31;6262141;22;20022;-63
2022/05/06 10:02:50;;;;;;;5.70;2.58;;;;;;;20.47;19.74;101216.66;6315628;22;20445;-64
2022/05/06 10:05:36;;;;;;;4.82;2.58;;;;;;;20.19;19.85;101224.91;6317278;22;20436;-62
2022/05/06 10:08:21;;;;;;;5.80;2.50;;;;;;;19.64;19.98;101216.06;6295855;22;20037;-63
2022/05/06 10:11:12;;;;;;;3.85;2.38;;;;;;;21.10;18.63;101231.28;6318768;22;20112;-63
2022/05/06 10:14:00;;;;;;;4.65;2.47;;;;;;;21.51;18.67;101227.78;6292973;22;20026;-65
2022/05/06 10:16:46;;;;;;;7.97;2.60;;;;;;;21.99;18.33;101225.72;6318440;22;20018;-63
2022/05/06 10:19:33;;;;;;;4.68;2.40;;;;;;;21.24;17.79;101230.75;6285564;22;20090;-62
2022/05/06 10:22:18;;;;;;;5.35;2.30;;;;;;;19.47;19.40;101188.84;6296107;22;20065;-63
2022/05/06 10:25:02;;;;;;;4.50;2.40;;;;;;;19.35;19.92;101214.34;6318877;22;20068;-63
2022/05/06 10:34:12;;;;;;;3.47;2.10;;;;;;;19.35;20.19;101216.16;6318497;22;20060;-63
2022/05/06 10:37:01;;;;;;;4.28;2.00;;;;;;;19.47;20.16;101205.88;6308715;22;20034;-65
2022/05/06 10:39:46;;;;;;;7.55;2.35;;;;;;;20.34;19.80;101223.44;6318920;22;20439;-63
2022/05/06 10:42:33;;;;;;;5.63;2.13;;;;;;;21.58;18.82;101204.09;6318643;22;20432;-63
2022/05/06 10:45:24;;;;;;;3.03;2.10;;;;;;;21.60;18.62;101210.31;6308916;22;20042;-64
2022/05/06 10:48:22;;;;;;;3.90;2.17;;;;;;;22.53;17.51;101217.00;6318921;22;20022;-66
2022/05/06 10:51:24;;;;;;;3.95;1.73;;;;;;;22.97;17.37;101202.28;6296392;22;20371;-62
2022/05/06 10:54:16;;;;;;;2.90;1.80;;;;;;;21.81;17.90;101201.34;6284335;22;20365;-64
2022/05/06 10:57:07;;;;;;;4.90;1.75;;;;;;;20.97;18.65;101200.31;6308187;22;20061;-63
2022/05/06 11:00:02;;;;;;;2.72;1.70;;;;;;;20.17;19.37;101202.50;6317912;22;20042;-62
2022/05/06 11:02:50;;;;;;;3.25;1.73;;;;;;;20.20;19.75;101201.50;6272451;22;20125;-64
2022/05/06 11:05:35;;;;;;;4.95;1.50;;;;;;;21.01;19.01;101169.59;6317679;22;20045;-63
2022/05/06 11:08:31;;;;;;;4.80;1.83;;;;;;;21.00;19.70;101202.00;6306411;22;20034;-62
2022/05/06 11:11:19;;;;;;;2.53;1.60;;;;;;;21.36;19.48;101197.84;6282675;22;20363;-63
2022/05/06 11:14:20;;;;;;;2.88;1.90;;;;;;;22.27;18.59;101187.53;6263073;22;20397;-62
2022/05/06 11:17:24;;;;;;;2.55;1.58;;;;;;;21.90;18.85;101195.53;6317982;22;20369;-65
2022/05/06 11:20:28;;;;;;;3.40;1.42;;;;;;;21.10;19.18;101200.72;6317755;22;20495;-65
2022/05/06 11:23:14;;;;;;;3.95;1.70;;;;;;;20.16;19.73;101198.06;6318410;22;20324;-64
2022/05/06 11:25:59;;;;;;;2.83;1.83;;;;;;;19.64;20.72;101181.06;6241111;22;20384;-63
2022/05/06 11:29:00;;;;;;;3.85;1.73;;;;;;;20.17;20.44;101182.78;6294418;22;20341;-64
2022/05/06 11:31:46;;;;;;;6.60;1.98;;;;;;;20.05;20.64;101165.22;6318893;22;20064;-64
2022/05/06 11:34:38;;;;;;;5.05;1.85;;;;;;;20.25;20.44;101183.38;6317537;22;20450;-63
2022/05/06 11:37:26;;;;;;;2.92;1.42;;;;;;;20.54;20.20;101169.69;6283229;22;20021;-68
2022/05/06 11:43:23;;;;;;;2.80;1.90;;;;;;;20.02;20.57;101167.16;6315412;22;20018;-65
2022/05/06 11:49:29;;;;;;;3.20;1.98;;;;;;;19.97;20.64;101155.66;6283502;22;20022;-64
2022/05/06 11:52:13;;;;;;;5.53;1.92;;;;;;;19.96;21.35;101145.81;6239394;22;20498;-64
2022/05/06 11:54:59;;;;;;;5.05;2.00;;;;;;;20.05;20.66;101154.44;6317730;22;20023;-63
2022/05/06 11:57:43;;;;;;;5.85;2.13;;;;;;;20.22;21.04;101157.41;6317750;22;20034;-64
2022/05/06 12:00:29;;;;;;;4.25;1.77;;;;;;;20.32;20.49;101164.22;6261636;22;20076;-64
2022/05/06 12:03:14;;;;;;;5.22;1.98;;;;;;;20.75;20.34;101147.28;6317918;22;20026;-63
2022/05/06 12:06:08;;;;;;;2.92;1.85;;;;;;;20.78;19.59;101139.06;6317777;22;20486;-63
2022/05/06 12:09:09;;;;;;;5.05;1.90;;;;;;;21.34;19.64;101135.84;6294455;22;20022;-69
2022/05/06 12:12:08;;;;;;;4.45;1.83;;;;;;;20.45;19.84;101137.69;6318226;22;20068;-67
2022/05/06 12:15:09;;;;;;;11.20;1.83;;;;;;;19.68;20.23;101134.28;6318013;22;20042;-66
2022/05/06 12:18:10;;;;;;;4.10;1.63;;;;;;;18.90;20.38;101135.13;6317984;22;20068;-65
2022/05/06 12:20:54;;;;;;;3.70;1.80;;;;;;;19.33;20.98;101126.53;6307721;22;20018;-64
2022/05/06 12:23:38;;;;;;;3.88;1.95;;;;;;;19.82;20.40;101099.69;6294405;22;20038;-65
2022/05/06 12:26:35;;;;;;;3.33;1.70;;;;;;;20.67;19.58;101120.63;6262385;22;20038;-64
2022/05/06 12:29:20;;;;;;;4.32;1.63;;;;;;;20.27;19.36;101109.66;6294230;22;20017;-65
2022/05/06 12:32:06;;;;;;;5.57;2.00;;;;;;;19.93;20.01;101111.78;6307500;22;20084;-63
2022/05/06 12:35:02;;;;;;;;;;;;;;;20.08;20.22;101115.72;6294762;22;20022;-64
2022/05/06 12:37:58;;;;;;;3.22;1.63;;;;;;;19.90;19.68;101103.81;6317703;22;20052;-62
2022/05/06 12:40:43;;;;;;;4.68;2.03;;;;;;;19.12;20.71;101105.72;6307441;22;20482;-62
2022/05/06 12:43:28;;;;;;;5.43;1.92;;;;;;;19.94;20.54;101107.31;6306955;22;20444;-64
2022/05/06 12:46:24;;;;;;;4.03;1.90;;;;;;;20.09;19.82;101104.03;6307074;22;20022;-62
2022/05/06 12:52:11;;;;;;;4.60;2.13;;;;;;;21.11;19.16;101087.34;6261744;22;20329;-63
2022/05/06 12:54:56;;;;;;;3.70;1.98;;;;;;;21.29;19.03;101083.84;6262449;22;20069;-63
2022/05/06 12:57:40;;;;;;;4.68;2.08;;;;;;;21.00;19.58;101076.13;6306645;22;20018;-63
2022/05/06 13:00:24;;;;;;;4.43;2.00;;;;;;;20.87;19.46;101087.44;6316936;22;20382;-62
2022/05/06 13:03:09;;;;;;;4.25;2.17;;;;;;;19.51;20.05;101061.34;6283651;22;20021;-65
2022/05/06 13:05:53;;;;;;;5.55;2.38;;;;;;;19.31;20.53;101088.97;6293746;22;20026;-64
2022/05/06 13:08:38;;;;;;;5.07;2.05;;;;;;;19.26;20.35;101079.28;6306545;22;20448;-63
2022/05/06 13:11:22;;;;;;;4.45;2.03;;;;;;;19.53;20.65;101079.19;6317021;22;20088;-62
2022/05/06 13:14:07;;;;;;;4.72;2.10;;;;;;;20.19;20.71;101067.75;6316928;22;20073;-63
2022/05/06 13:16:52;;;;;;;3.30;2.10;;;;;;;20.61;20.26;101039.13;6272566;22;20022;-63
2022/05/06 13:19:37;;;;;;;9.45;2.80;;;;;;;21.01;19.84;101068.94;6317237;22;20094;-63
2022/05/06 13:22:21;;;;;;;5.85;2.20;;;;;;;21.13;19.90;101063.03;6317107;22;20018;-62
2022/05/06 13:25:06;;;;;;;3.42;1.92;;;;;;;20.64;19.63;101037.16;6316644;22;20141;-62
2022/05/06 13:27:50;;;;;;;4.85;2.15;;;;;;;20.69;19.94;101064.81;6316231;22;20018;-62
2022/05/06 13:30:34;;;;;;;4.22;2.45;;;;;;;20.78;19.85;101061.75;6316728;22;20042;-63
2022/05/06 13:33:19;;;;;;;3.83;2.00;;;;;;;20.26;20.01;101074.69;6316643;22;20095;-62
2022/05/06 13:36:03;;;;;;;5.10;2.10;;;;;;;20.04;20.66;101065.59;6306954;22;20068;-61
2022/05/06 13:38:48;;;;;;;2.95;2.25;;;;;;;20.21;20.54;101065.91;6283054;22;20448;-63
2022/05/06 13:41:32;;;;;;;3.65;2.22;;;;;;;20.13;20.23;101055.41;6293192;22;20065;-62
2022/05/06 13:44:17;;;;;;;4.60;2.35;;;;;;;19.81;20.35;101030.59;6271710;22;20396;-63
2022/05/06 13:47:01;;;;;;;4.65;2.28;;;;;;;19.79;20.66;101062.97;6306835;22;20448;-62
2022/05/06 13:49:46;;;;;;;4.45;2.53;;;;;;;19.99;20.37;101062.22;6316873;22;20023;-62
2022/05/06 13:52:30;;;;;;;3.17;1.75;;;;;;;19.52;20.49;101039.75;6316708;22;20019;-64
2022/05/06 13:55:14;;;;;;;7.43;2.10;;;;;;;19.28;20.40;101028.97;6293644;22;20079;-63
2022/05/06 14:01:03;;;;;;;2.75;2.00;;;;;;;19.86;19.99;101063.63;6316696;22;20014;-67